Karah D — WDC9058 — position and weather

sailwx.info

Track history (hours):
 
Tides and Currents Weather Stations Pressure Air Temp Water Temp Dewpoint Dewpoint Depression Visibility Wind Speed Wind Dir Waves Ship Positions

Karah D

Owner: Karah D Inc, Bayboro, NC. More information available from US FCC via Universal Licensing System and Coast Guard Vessel Documentation Center.

Last reported at 2018-Feb-14 22:21 UTC. Time now 2018-Feb-20 07:29 UTC.
Position N 34°53' W 076°41'.

Length 25 m.

Type: Fishing. MMSI: 367097050.

Date/timePositionNaut miles runAvg speedWind from/ knotsBaromVisibWave heightAir tempDewpointWater temp
2018-Feb-14 22:21N 34°53' W 076°41'3 7.3
2018-Feb-14 22:00N 34°50' W 076°41'2 4.6
2018-Feb-14 21:30N 34°48' W 076°41'3 6.4
2018-Feb-14 20:58N 34°45' W 076°40'0 0.0
2018-Feb-14 20:28N 34°45' W 076°40'0 0.0
2018-Feb-14 19:58N 34°45' W 076°40'0 0.0
2018-Feb-14 19:28N 34°45' W 076°40'0 0.0
2018-Feb-14 18:58N 34°45' W 076°40'0 0.0
2018-Feb-14 18:28N 34°45' W 076°40'0 0.0
2018-Feb-14 17:58N 34°45' W 076°40'0 0.3
2018-Feb-14 17:26N 34°44' W 076°40'1 2.6
2018-Feb-14 16:58N 34°43' W 076°40'0 0.0
2018-Feb-14 16:28N 34°43' W 076°40'0 0.0
2018-Feb-14 15:58N 34°43' W 076°40'0 0.0
2018-Feb-14 15:28N 34°43' W 076°40'0 0.0
2018-Feb-14 14:58N 34°43' W 076°40'0 0.0
2018-Feb-14 14:28N 34°43' W 076°40'0 0.0
2018-Feb-14 13:58N 34°43' W 076°40'0 0.0
2018-Feb-14 13:28N 34°43' W 076°40'0 0.0
2018-Feb-14 12:58N 34°43' W 076°40'0 0.0
2018-Feb-14 12:28N 34°43' W 076°40'0 0.0
2018-Feb-14 11:58N 34°43' W 076°40'0 0.0
2018-Feb-14 11:28N 34°43' W 076°40'0 0.0
2018-Feb-14 10:58N 34°43' W 076°40'0 0.0
2018-Feb-14 10:28N 34°43' W 076°40'0 0.0
2018-Feb-14 09:58N 34°43' W 076°40'0 0.0
2018-Feb-14 09:28N 34°43' W 076°40'0 0.0
2018-Feb-14 08:58N 34°43' W 076°40'0 0.0
2018-Feb-14 08:28N 34°43' W 076°40'0 0.0
2018-Feb-14 07:58N 34°43' W 076°40'0 0.0
2018-Feb-14 07:28N 34°43' W 076°40'0 0.0
2018-Feb-14 06:58N 34°43' W 076°40'0 0.0
2018-Feb-14 06:28N 34°43' W 076°40'0 0.0
2018-Feb-14 05:58N 34°43' W 076°40'0 0.0
2018-Feb-14 05:28N 34°43' W 076°40'0 0.0
2018-Feb-14 04:58N 34°43' W 076°40'0 0.0
2018-Feb-14 04:28N 34°43' W 076°40'0 0.0
2018-Feb-14 03:58N 34°43' W 076°40'0 0.0
2018-Feb-14 03:28N 34°43' W 076°40'0 0.0
2018-Feb-14 02:58N 34°43' W 076°40'0 0.0
2018-Feb-14 02:28N 34°43' W 076°40'0 0.0
2018-Feb-14 01:58N 34°43' W 076°40'0 0.0
2018-Feb-14 01:25N 34°43' W 076°40'0 0.0
2018-Feb-14 00:58N 34°43' W 076°40'0 0.0
2018-Feb-14 00:28N 34°43' W 076°40'0 0.0
2018-Feb-13 23:58N 34°43' W 076°40'0 0.0
2018-Feb-13 23:28N 34°43' W 076°40'0 0.0
2018-Feb-13 22:58N 34°43' W 076°40'0 0.0
2018-Feb-13 22:30N 34°43' W 076°40'3 6.4
2018-Feb-13 22:00N 34°40' W 076°40'4 7.5
2018-Feb-13 21:30N 34°37' W 076°38'  
2018-Feb-05 18:21N 34°36' W 076°38'3 8.8
2018-Feb-05 18:00N 34°39' W 076°40'5 4.6
2018-Feb-05 16:58N 34°43' W 076°40'0 0.0
2018-Feb-05 16:28N 34°43' W 076°40'0 0.0
2018-Feb-05 15:58N 34°43' W 076°40'0 0.3
2018-Feb-05 15:30N 34°43' W 076°40'1 2.2
2018-Feb-05 15:00N 34°45' W 076°40'4 7.5
2018-Feb-05 14:30N 34°48' W 076°41'  
Track history (hours):
 
Tides and Currents Weather Stations Pressure Air Temp Water Temp Dewpoint Dewpoint Depression Visibility Wind Speed Wind Dir Waves Ship Positions

Karah D

Owner: Karah D Inc, Bayboro, NC. More information available from US FCC via Universal Licensing System and Coast Guard Vessel Documentation Center.

Last reported at 2018-Feb-14 22:21 UTC. Time now 2018-Feb-20 07:29 UTC.
Position N 34°53' W 076°41'.

Length 25 m.

Type: Fishing. MMSI: 367097050.

Date/timePositionNaut miles runAvg speedWind from/ knotsBaromVisibWave heightAir tempDewpointWater temp
2018-Feb-14 22:21N 34°53' W 076°41'3 7.3
2018-Feb-14 22:00N 34°50' W 076°41'2 4.6
2018-Feb-14 21:30N 34°48' W 076°41'3 6.4
2018-Feb-14 20:58N 34°45' W 076°40'0 0.0
2018-Feb-14 20:28N 34°45' W 076°40'0 0.0
2018-Feb-14 19:58N 34°45' W 076°40'0 0.0
2018-Feb-14 19:28N 34°45' W 076°40'0 0.0
2018-Feb-14 18:58N 34°45' W 076°40'0 0.0
2018-Feb-14 18:28N 34°45' W 076°40'0 0.0
2018-Feb-14 17:58N 34°45' W 076°40'0 0.3
2018-Feb-14 17:26N 34°44' W 076°40'1 2.6
2018-Feb-14 16:58N 34°43' W 076°40'0 0.0
2018-Feb-14 16:28N 34°43' W 076°40'0 0.0
2018-Feb-14 15:58N 34°43' W 076°40'0 0.0
2018-Feb-14 15:28N 34°43' W 076°40'0 0.0
2018-Feb-14 14:58N 34°43' W 076°40'0 0.0
2018-Feb-14 14:28N 34°43' W 076°40'0 0.0
2018-Feb-14 13:58N 34°43' W 076°40'0 0.0
2018-Feb-14 13:28N 34°43' W 076°40'0 0.0
2018-Feb-14 12:58N 34°43' W 076°40'0 0.0
2018-Feb-14 12:28N 34°43' W 076°40'0 0.0
2018-Feb-14 11:58N 34°43' W 076°40'0 0.0
2018-Feb-14 11:28N 34°43' W 076°40'0 0.0
2018-Feb-14 10:58N 34°43' W 076°40'0 0.0
2018-Feb-14 10:28N 34°43' W 076°40'0 0.0
2018-Feb-14 09:58N 34°43' W 076°40'0 0.0
2018-Feb-14 09:28N 34°43' W 076°40'0 0.0
2018-Feb-14 08:58N 34°43' W 076°40'0 0.0
2018-Feb-14 08:28N 34°43' W 076°40'0 0.0
2018-Feb-14 07:58N 34°43' W 076°40'0 0.0
2018-Feb-14 07:28N 34°43' W 076°40'0 0.0
2018-Feb-14 06:58N 34°43' W 076°40'0 0.0
2018-Feb-14 06:28N 34°43' W 076°40'0 0.0
2018-Feb-14 05:58N 34°43' W 076°40'0 0.0
2018-Feb-14 05:28N 34°43' W 076°40'0 0.0
2018-Feb-14 04:58N 34°43' W 076°40'0 0.0
2018-Feb-14 04:28N 34°43' W 076°40'0 0.0
2018-Feb-14 03:58N 34°43' W 076°40'0 0.0
2018-Feb-14 03:28N 34°43' W 076°40'0 0.0
2018-Feb-14 02:58N 34°43' W 076°40'0 0.0
2018-Feb-14 02:28N 34°43' W 076°40'0 0.0
2018-Feb-14 01:58N 34°43' W 076°40'0 0.0
2018-Feb-14 01:25N 34°43' W 076°40'0 0.0
2018-Feb-14 00:58N 34°43' W 076°40'0 0.0
2018-Feb-14 00:28N 34°43' W 076°40'0 0.0
2018-Feb-13 23:58N 34°43' W 076°40'0 0.0
2018-Feb-13 23:28N 34°43' W 076°40'0 0.0
2018-Feb-13 22:58N 34°43' W 076°40'0 0.0
2018-Feb-13 22:30N 34°43' W 076°40'3 6.4
2018-Feb-13 22:00N 34°40' W 076°40'4 7.5
2018-Feb-13 21:30N 34°37' W 076°38'  
2018-Feb-05 18:21N 34°36' W 076°38'3 8.8
2018-Feb-05 18:00N 34°39' W 076°40'5 4.6
2018-Feb-05 16:58N 34°43' W 076°40'0 0.0
2018-Feb-05 16:28N 34°43' W 076°40'0 0.0
2018-Feb-05 15:58N 34°43' W 076°40'0 0.3
2018-Feb-05 15:30N 34°43' W 076°40'1 2.2
2018-Feb-05 15:00N 34°45' W 076°40'4 7.5
2018-Feb-05 14:30N 34°48' W 076°41'  

Dump ship's entire track history